createdAt,value
2022-10-22T00:00:59.202Z,9.88
2022-10-22T00:03:27.041Z,9.77
2022-10-22T00:05:54.792Z,9.13
2022-10-22T00:10:51.481Z,8.85
2022-10-22T00:13:19.325Z,8.63
2022-10-22T00:15:47.113Z,9.07
2022-10-22T00:18:15.300Z,8.57
2022-10-22T00:20:43.495Z,8.50
2022-10-22T00:23:11.341Z,8.80
2022-10-22T00:25:39.139Z,8.65
2022-10-22T00:28:08.309Z,8.45
2022-10-22T00:30:36.361Z,8.82
2022-10-22T00:33:04.246Z,8.75
2022-10-22T00:35:32.140Z,8.27
2022-10-22T00:38:00.021Z,8.73
2022-10-22T00:42:55.626Z,7.97
2022-10-22T00:45:26.006Z,8.00
2022-10-22T00:47:56.742Z,8.38
2022-10-22T00:50:26.029Z,8.70
2022-10-22T00:52:54.152Z,8.90
2022-10-22T00:55:22.017Z,8.02
2022-10-22T00:57:49.915Z,7.93
2022-10-22T01:00:18.087Z,9.10
2022-10-22T01:02:48.224Z,8.82
2022-10-22T01:05:16.195Z,7.85
2022-10-22T01:07:46.076Z,8.13
2022-10-22T01:10:20.014Z,8.48
2022-10-22T01:12:51.471Z,9.23
2022-10-22T01:15:23.873Z,8.38
2022-10-22T01:17:57.506Z,9.30
2022-10-22T01:20:35.412Z,8.70
2022-10-22T01:23:06.899Z,8.32
2022-10-22T01:25:36.546Z,8.90
2022-10-22T01:28:10.671Z,8.30
2022-10-22T01:30:43.086Z,8.25
2022-10-22T01:33:13.641Z,7.88
2022-10-22T01:35:43.013Z,7.90
2022-10-22T01:38:13.920Z,8.50
2022-10-22T01:40:42.003Z,8.10
2022-10-22T01:43:10.686Z,8.27
2022-10-22T01:45:41.273Z,8.82
2022-10-22T01:48:17.699Z,7.85
2022-10-22T01:50:56.847Z,7.53
2022-10-22T01:53:31.742Z,7.68
2022-10-22T01:56:07.256Z,7.93
2022-10-22T01:58:40.395Z,8.15
2022-10-22T02:01:15.164Z,7.97
2022-10-22T02:03:46.367Z,8.07
2022-10-22T02:06:17.118Z,7.55
2022-10-22T02:08:46.532Z,8.00
2022-10-22T02:11:15.032Z,7.93
2022-10-22T02:13:46.747Z,8.27
2022-10-22T02:16:18.411Z,8.60
2022-10-22T02:18:48.128Z,8.90
2022-10-22T02:21:15.903Z,8.57
2022-10-22T02:23:43.913Z,7.40
2022-10-22T02:26:16.390Z,7.63
2022-10-22T02:28:47.725Z,8.48
2022-10-22T02:31:20.253Z,8.57
2022-10-22T02:33:52.421Z,8.48
2022-10-22T02:36:20.550Z,8.75
2022-10-22T02:38:50.519Z,9.05
2022-10-22T02:41:19.421Z,9.00
2022-10-22T02:43:50.773Z,7.78
2022-10-22T02:46:20.053Z,8.25
2022-10-22T02:48:48.741Z,8.55
2022-10-22T02:51:16.881Z,9.20
2022-10-22T02:53:44.683Z,9.35
2022-10-22T02:56:12.700Z,8.48
2022-10-22T02:58:40.551Z,8.48
2022-10-22T03:01:10.289Z,8.45
2022-10-22T03:03:43.833Z,8.38
2022-10-22T03:06:11.721Z,8.65
2022-10-22T03:08:39.658Z,8.05
2022-10-22T03:11:08.613Z,7.88
2022-10-22T03:13:36.614Z,9.00
2022-10-22T03:16:04.604Z,8.52
2022-10-22T03:18:32.374Z,8.35
2022-10-22T03:23:29.062Z,9.13
2022-10-22T03:28:30.746Z,8.68
2022-10-22T03:30:58.555Z,10.35
2022-10-22T03:33:26.374Z,10.15
2022-10-22T03:35:54.480Z,9.20
2022-10-22T03:38:22.314Z,9.73
2022-10-22T03:40:51.835Z,9.52
2022-10-22T03:43:19.607Z,9.77
2022-10-22T03:48:15.103Z,9.40
2022-10-22T03:53:10.754Z,9.02
2022-10-22T03:55:39.263Z,8.82
2022-10-22T03:58:08.472Z,9.15
2022-10-22T04:00:36.923Z,9.63
2022-10-22T04:03:05.066Z,9.35
2022-10-22T04:05:35.023Z,8.60
2022-10-22T04:08:02.804Z,9.38
2022-10-22T04:12:58.000Z,9.18
2022-10-22T04:17:57.826Z,9.30
2022-10-22T04:20:26.260Z,8.82
2022-10-22T04:25:22.441Z,8.67
2022-10-22T04:27:50.225Z,9.38
2022-10-22T04:30:19.800Z,8.77
2022-10-22T04:32:47.563Z,9.10
2022-10-22T04:35:17.052Z,9.50
2022-10-22T04:37:45.141Z,8.65
2022-10-22T04:40:13.474Z,9.85
2022-10-22T04:42:41.327Z,10.15
2022-10-22T04:45:09.675Z,9.45
2022-10-22T04:47:37.657Z,9.52
2022-10-22T04:50:06.015Z,10.02
2022-10-22T04:52:35.159Z,9.35
2022-10-22T04:55:05.337Z,10.25
2022-10-22T04:57:33.500Z,9.70
2022-10-22T05:00:04.078Z,24.95
2022-10-22T05:02:31.898Z,34.58
2022-10-22T05:04:59.709Z,14.95
2022-10-22T05:07:27.764Z,11.18
2022-10-22T05:09:57.291Z,9.52
2022-10-22T05:12:26.156Z,9.73
2022-10-22T05:14:53.988Z,10.10
2022-10-22T05:17:21.808Z,10.43
2022-10-22T05:19:49.622Z,10.25
2022-10-22T05:22:17.726Z,9.93
2022-10-22T05:24:45.492Z,10.80
2022-10-22T05:27:14.672Z,10.00
2022-10-22T05:29:42.439Z,10.88
2022-10-22T05:34:37.818Z,10.43
2022-10-22T05:37:05.579Z,12.15
2022-10-22T05:42:05.034Z,10.45
2022-10-22T05:44:34.158Z,10.70
2022-10-22T05:47:01.871Z,11.05
2022-10-22T05:51:57.307Z,11.45
2022-10-22T05:54:25.221Z,10.57
2022-10-22T05:56:52.972Z,10.88
2022-10-22T06:01:49.827Z,11.65
2022-10-22T06:04:18.023Z,10.77
2022-10-22T06:06:46.568Z,10.35
2022-10-22T06:09:17.034Z,10.90
2022-10-22T06:11:45.639Z,30.30
2022-10-22T06:14:13.631Z,12.60
2022-10-22T06:16:41.867Z,10.93
2022-10-22T06:19:11.161Z,10.63
2022-10-22T06:21:39.066Z,10.20
2022-10-22T06:24:07.301Z,10.95
2022-10-22T06:26:35.061Z,11.60
2022-10-22T06:31:36.790Z,10.93
2022-10-22T06:34:05.085Z,11.88
2022-10-22T06:36:34.968Z,10.27
2022-10-22T06:39:03.615Z,10.90
2022-10-22T06:41:32.556Z,11.20
2022-10-22T06:44:00.425Z,10.30
2022-10-22T06:46:28.709Z,10.02
2022-10-22T06:48:57.922Z,10.48
2022-10-22T06:51:26.077Z,10.35
2022-10-22T06:53:55.547Z,9.40
2022-10-22T06:56:24.348Z,10.00
2022-10-22T06:58:52.746Z,10.10
2022-10-22T07:01:21.502Z,10.80
2022-10-22T07:03:51.054Z,16.63
2022-10-22T07:06:19.120Z,18.30
2022-10-22T07:08:46.962Z,10.85
2022-10-22T07:11:17.200Z,11.00
2022-10-22T07:13:45.501Z,10.88
2022-10-22T07:16:13.480Z,10.55
2022-10-22T07:18:42.033Z,12.57
2022-10-22T07:21:10.235Z,11.85
2022-10-22T07:23:38.421Z,11.27
2022-10-22T07:26:08.579Z,10.30
2022-10-22T07:28:40.011Z,11.30
2022-10-22T07:31:08.463Z,10.32
2022-10-22T07:33:36.261Z,10.77
2022-10-22T07:36:05.767Z,11.23
2022-10-22T07:38:34.064Z,10.77
2022-10-22T07:41:02.008Z,12.15
2022-10-22T07:43:29.813Z,11.73
2022-10-22T07:46:00.002Z,12.23
2022-10-22T07:48:29.974Z,11.18
2022-10-22T07:50:58.420Z,10.80
2022-10-22T07:53:26.362Z,12.18
2022-10-22T07:55:54.663Z,11.93
2022-10-22T07:58:22.688Z,11.07
2022-10-22T08:00:50.995Z,12.13
2022-10-22T08:03:20.297Z,12.10
2022-10-22T08:05:48.262Z,12.63
2022-10-22T08:08:17.129Z,11.63
2022-10-22T08:10:44.982Z,12.80
2022-10-22T08:13:12.884Z,12.90
2022-10-22T08:18:11.552Z,13.13
2022-10-22T08:20:40.983Z,13.48
2022-10-22T08:23:08.980Z,13.77
2022-10-22T08:25:36.742Z,12.45
2022-10-22T08:28:04.699Z,13.65
2022-10-22T08:30:34.027Z,12.43
2022-10-22T08:33:01.885Z,12.15
2022-10-22T08:35:29.849Z,11.50
2022-10-22T08:38:00.230Z,12.15
2022-10-22T08:40:30.803Z,12.48
2022-10-22T08:43:11.128Z,12.55
2022-10-22T08:45:41.578Z,11.60
2022-10-22T08:48:14.542Z,12.07
2022-10-22T08:50:44.870Z,11.85
2022-10-22T08:53:16.535Z,11.80
2022-10-22T08:55:44.844Z,12.82
2022-10-22T08:58:20.250Z,13.68
2022-10-22T09:00:53.567Z,13.65
2022-10-22T09:03:27.076Z,12.15
2022-10-22T09:05:57.286Z,12.75
2022-10-22T09:08:26.727Z,12.20
2022-10-22T09:11:05.278Z,12.25
2022-10-22T09:13:33.231Z,13.70
2022-10-22T09:16:02.123Z,13.02
2022-10-22T09:18:34.258Z,13.32
2022-10-22T09:21:05.552Z,13.43
2022-10-22T09:23:38.555Z,13.98
2022-10-22T09:26:13.708Z,44.50
2022-10-22T09:28:41.453Z,14.57
2022-10-22T09:31:11.984Z,13.00
2022-10-22T09:33:41.153Z,12.50
2022-10-22T09:36:09.580Z,14.00
2022-10-22T09:38:42.305Z,13.10
2022-10-22T09:41:11.053Z,12.75
2022-10-22T09:46:26.275Z,12.43
2022-10-22T09:48:59.920Z,13.23
2022-10-22T09:51:38.047Z,14.23
2022-10-22T09:54:14.784Z,14.63
2022-10-22T09:56:43.388Z,14.45
2022-10-22T09:59:15.617Z,13.27
2022-10-22T10:01:44.584Z,14.10
2022-10-22T10:04:13.771Z,14.02
2022-10-22T10:06:42.543Z,13.40
2022-10-22T10:09:19.173Z,12.38
2022-10-22T10:11:50.047Z,12.95
2022-10-22T10:14:21.637Z,13.48
2022-10-22T10:16:57.072Z,13.63
2022-10-22T10:19:34.355Z,15.18
2022-10-22T10:22:05.942Z,13.30
2022-10-22T10:24:42.277Z,16.63
2022-10-22T10:27:11.826Z,14.68
2022-10-22T10:29:42.971Z,18.63
2022-10-22T10:32:26.062Z,14.57
2022-10-22T10:34:58.570Z,14.95
2022-10-22T10:37:28.848Z,15.40
2022-10-22T10:40:12.895Z,13.98
2022-10-22T10:42:43.375Z,17.67
2022-10-22T10:45:17.301Z,18.38
2022-10-22T10:48:00.011Z,17.15
2022-10-22T10:50:31.049Z,15.40
2022-10-22T10:53:04.349Z,15.40
2022-10-22T10:55:34.091Z,15.18
2022-10-22T10:58:07.247Z,15.18
2022-10-22T11:00:37.527Z,16.33
2022-10-22T11:03:25.769Z,16.13
2022-10-22T11:05:55.841Z,14.35
2022-10-22T11:08:25.957Z,14.95
2022-10-22T11:10:56.677Z,16.30
2022-10-22T11:13:29.362Z,16.10
2022-10-22T11:15:59.155Z,15.32
2022-10-22T11:18:30.179Z,16.15
2022-10-22T11:21:25.030Z,17.50
2022-10-22T11:23:56.096Z,14.68
2022-10-22T11:26:30.561Z,16.55
2022-10-22T11:28:59.720Z,20.13
2022-10-22T11:31:28.329Z,16.13
2022-10-22T11:34:28.403Z,17.08
2022-10-22T11:36:53.804Z,15.88
2022-10-22T11:39:36.375Z,15.63
2022-10-22T11:42:08.927Z,16.73
2022-10-22T11:44:46.986Z,16.52
2022-10-22T11:47:19.676Z,16.80
2022-10-22T11:49:56.719Z,15.60
2022-10-22T11:52:26.137Z,15.93
2022-10-22T11:54:57.892Z,16.13
2022-10-22T11:57:36.568Z,16.88
2022-10-22T12:00:10.333Z,16.83
2022-10-22T12:02:42.321Z,17.42
2022-10-22T12:05:34.932Z,16.77
2022-10-22T12:08:04.929Z,15.20
2022-10-22T12:10:35.979Z,16.35
2022-10-22T12:13:12.136Z,15.35
2022-10-22T12:15:48.026Z,14.55
2022-10-22T12:18:16.550Z,14.95
2022-10-22T12:20:44.432Z,14.27
2022-10-22T12:23:13.027Z,14.60
2022-10-22T12:25:40.976Z,14.30
2022-10-22T12:28:12.611Z,14.18
2022-10-22T12:30:41.434Z,14.20
2022-10-22T12:33:19.138Z,13.38
2022-10-22T12:35:47.716Z,14.88
2022-10-22T12:38:16.853Z,14.98
2022-10-22T12:40:47.724Z,15.25
2022-10-22T12:43:19.561Z,16.13
2022-10-22T12:45:48.433Z,15.65
2022-10-22T12:48:18.092Z,15.73
2022-10-22T12:50:46.543Z,15.20
2022-10-22T12:53:16.266Z,14.55
2022-10-22T12:55:47.437Z,14.60
2022-10-22T12:58:17.546Z,15.45
2022-10-22T13:00:47.818Z,17.60
2022-10-22T13:03:29.849Z,17.70
2022-10-22T13:05:57.718Z,16.23
2022-10-22T13:08:28.962Z,15.73
2022-10-22T13:10:56.940Z,16.40
2022-10-22T13:13:34.720Z,16.25
2022-10-22T13:16:20.833Z,17.15
2022-10-22T13:18:49.716Z,16.80
2022-10-22T13:21:25.117Z,17.58
2022-10-22T13:23:57.370Z,18.30
2022-10-22T13:26:26.694Z,16.65
2022-10-22T13:28:55.358Z,17.55
2022-10-22T13:31:26.995Z,17.75
2022-10-22T13:33:56.527Z,19.05
2022-10-22T13:36:24.820Z,18.00
2022-10-22T13:38:55.047Z,17.65
2022-10-22T13:41:24.356Z,18.38
2022-10-22T13:43:52.081Z,17.15
2022-10-22T13:46:20.210Z,16.05
2022-10-22T13:48:50.438Z,17.48
2022-10-22T13:51:19.222Z,16.73
2022-10-22T13:53:47.975Z,18.48
2022-10-22T13:56:16.633Z,17.88
2022-10-22T13:58:45.171Z,18.50
2022-10-22T14:01:18.029Z,19.90
2022-10-22T14:03:46.264Z,18.27
2022-10-22T14:06:16.579Z,17.25
2022-10-22T14:08:47.993Z,17.88
2022-10-22T14:11:15.894Z,17.80
2022-10-22T14:13:43.894Z,17.80
2022-10-22T14:16:16.432Z,18.02
2022-10-22T14:18:44.503Z,17.83
2022-10-22T14:21:16.194Z,17.77
2022-10-22T14:23:46.368Z,18.60
2022-10-22T14:26:20.915Z,16.90
2022-10-22T14:29:08.916Z,16.85
2022-10-22T14:31:38.021Z,17.80
2022-10-22T14:34:05.855Z,17.40
2022-10-22T14:36:33.636Z,17.77
2022-10-22T14:39:02.894Z,18.88
2022-10-22T14:41:31.904Z,19.23
2022-10-22T14:44:00.215Z,17.95
2022-10-22T14:46:28.804Z,18.85
2022-10-22T14:48:56.608Z,16.40
2022-10-22T14:51:24.389Z,18.00
2022-10-22T14:53:52.256Z,16.52
2022-10-22T14:56:22.359Z,16.52
2022-10-22T14:58:51.423Z,16.80
2022-10-22T15:01:19.234Z,16.05
2022-10-22T15:03:47.313Z,17.10
2022-10-22T15:06:15.126Z,17.88
2022-10-22T15:08:45.615Z,16.48
2022-10-22T15:11:21.434Z,16.85
2022-10-22T15:13:50.704Z,16.98
2022-10-22T15:16:18.747Z,17.77
2022-10-22T15:18:46.629Z,17.77
2022-10-22T15:21:15.728Z,17.00
2022-10-22T15:23:45.483Z,18.15
2022-10-22T15:26:13.730Z,16.33
2022-10-22T15:28:41.620Z,14.88
2022-10-22T15:31:13.618Z,15.43
2022-10-22T15:33:42.132Z,14.90
2022-10-22T15:36:11.062Z,14.70
2022-10-22T15:38:38.977Z,14.90
2022-10-22T15:41:07.688Z,14.40
2022-10-22T15:43:38.130Z,14.40
2022-10-22T15:46:10.729Z,14.93
2022-10-22T15:48:40.097Z,14.65
2022-10-22T15:51:11.450Z,13.15
2022-10-22T15:53:42.047Z,13.20
2022-10-22T15:56:11.724Z,13.25
2022-10-22T15:58:39.597Z,13.52
2022-10-22T16:01:08.402Z,13.70
2022-10-22T16:03:36.345Z,13.98
2022-10-22T16:06:05.832Z,14.65
2022-10-22T16:08:33.997Z,14.65
2022-10-22T16:11:01.916Z,14.07
2022-10-22T16:13:31.246Z,13.98
2022-10-22T16:15:59.047Z,14.65
2022-10-22T16:18:26.912Z,13.60
2022-10-22T16:20:54.819Z,13.45
2022-10-22T16:23:24.509Z,13.35
2022-10-22T16:25:52.432Z,14.20
2022-10-22T16:28:22.664Z,14.20
2022-10-22T16:30:50.455Z,15.40
2022-10-22T16:33:19.062Z,14.80
2022-10-22T16:35:46.889Z,15.25
2022-10-22T16:38:14.806Z,16.42
2022-10-22T16:40:44.111Z,18.58
2022-10-22T16:43:12.015Z,17.77
2022-10-22T16:45:39.837Z,18.35
2022-10-22T16:48:07.793Z,17.83
2022-10-22T16:50:38.292Z,17.60
2022-10-22T16:53:06.054Z,16.65
2022-10-22T16:55:39.191Z,16.65
2022-10-22T16:58:09.854Z,15.60
2022-10-22T17:00:38.166Z,17.08
2022-10-22T17:03:07.393Z,16.40
2022-10-22T17:05:37.015Z,16.67
2022-10-22T17:08:05.134Z,16.95
2022-10-22T17:10:32.950Z,16.90
2022-10-22T17:13:00.920Z,16.33
2022-10-22T17:15:30.125Z,17.90
2022-10-22T17:18:00.343Z,17.80
2022-10-22T17:20:28.503Z,18.50
2022-10-22T17:22:56.446Z,16.50
2022-10-22T17:25:26.263Z,17.63
2022-10-22T17:27:55.162Z,17.50
2022-10-22T17:30:27.284Z,17.30
2022-10-22T17:32:56.675Z,18.42
2022-10-22T17:35:24.600Z,18.08
2022-10-22T17:37:52.846Z,17.30
2022-10-22T17:40:28.187Z,17.75
2022-10-22T17:42:57.378Z,16.55
2022-10-22T17:45:25.165Z,16.80
2022-10-22T17:47:58.208Z,15.73
2022-10-22T17:50:27.433Z,17.25
2022-10-22T17:52:55.421Z,17.27
2022-10-22T17:55:23.284Z,20.23
2022-10-22T17:57:51.078Z,15.82
2022-10-22T18:02:47.652Z,16.38
2022-10-22T18:05:15.891Z,18.17
2022-10-22T18:07:45.351Z,17.98
2022-10-22T18:10:13.405Z,19.67
2022-10-22T18:12:42.397Z,19.55
2022-10-22T18:15:11.233Z,19.73
2022-10-22T18:17:40.326Z,20.38
2022-10-22T18:20:10.200Z,19.50
2022-10-22T18:22:38.115Z,18.70
2022-10-22T18:25:07.963Z,19.30
2022-10-22T18:27:36.143Z,20.02
2022-10-22T18:30:04.393Z,19.00
2022-10-22T18:32:33.093Z,22.70
2022-10-22T18:35:01.007Z,19.58
2022-10-22T18:37:31.258Z,19.23
2022-10-22T18:40:00.036Z,18.75
2022-10-22T18:42:32.760Z,18.63
2022-10-22T18:45:02.463Z,20.33
2022-10-22T18:47:30.561Z,19.90
2022-10-22T18:49:58.436Z,18.00
2022-10-22T18:52:26.311Z,19.45
2022-10-22T18:54:54.448Z,19.70
2022-10-22T18:57:22.272Z,17.85
2022-10-22T18:59:54.619Z,17.88
2022-10-22T19:02:25.063Z,19.08
2022-10-22T19:04:52.873Z,18.30
2022-10-22T19:07:20.719Z,18.02
2022-10-22T19:09:48.917Z,17.90
2022-10-22T19:12:16.750Z,18.23
2022-10-22T19:14:44.592Z,18.25
2022-10-22T19:17:14.465Z,18.73
2022-10-22T19:19:49.698Z,27.70
2022-10-22T19:22:23.523Z,19.88
2022-10-22T19:24:51.652Z,18.40
2022-10-22T19:27:19.958Z,18.02
2022-10-22T19:29:49.848Z,18.15
2022-10-22T19:32:20.225Z,17.85
2022-10-22T19:34:48.348Z,17.23
2022-10-22T19:37:16.119Z,16.90
2022-10-22T19:39:44.408Z,20.42
2022-10-22T19:42:12.942Z,20.55
2022-10-22T19:44:40.856Z,20.17
2022-10-22T19:47:09.899Z,21.40
2022-10-22T19:49:39.129Z,20.15
2022-10-22T19:52:07.106Z,18.00
2022-10-22T19:54:37.344Z,18.17
2022-10-22T19:57:05.377Z,19.77
2022-10-22T19:59:34.459Z,18.88
2022-10-22T20:02:02.786Z,20.52
2022-10-22T20:04:30.797Z,18.92
2022-10-22T20:07:00.053Z,18.65
2022-10-22T20:09:28.768Z,18.63
2022-10-22T20:11:56.652Z,18.63
2022-10-22T20:14:24.434Z,18.35
2022-10-22T20:16:52.331Z,19.00
2022-10-22T20:19:20.536Z,19.10
2022-10-22T20:21:50.682Z,17.75
2022-10-22T20:24:21.508Z,18.02
2022-10-22T20:26:49.964Z,17.88
2022-10-22T20:29:20.034Z,17.58
2022-10-22T20:31:48.522Z,18.38
2022-10-22T20:34:16.665Z,19.15
2022-10-22T20:36:44.891Z,17.20
2022-10-22T20:39:13.550Z,18.77
2022-10-22T20:41:43.302Z,18.83
2022-10-22T20:44:14.075Z,19.30
2022-10-22T20:46:41.939Z,20.92
2022-10-22T20:49:11.368Z,18.45
2022-10-22T20:51:39.237Z,18.70
2022-10-22T20:54:08.269Z,20.92
2022-10-22T20:56:36.739Z,21.02
2022-10-22T20:59:08.036Z,20.20
2022-10-22T21:01:37.766Z,20.67
2022-10-22T21:04:05.907Z,22.75
2022-10-22T21:06:38.040Z,22.52
2022-10-22T21:09:08.800Z,19.67
2022-10-22T21:11:36.947Z,22.48
2022-10-22T21:14:06.416Z,21.42
2022-10-22T21:16:36.821Z,20.90
2022-10-22T21:19:05.049Z,20.05
2022-10-22T21:21:33.064Z,21.92
2022-10-22T21:24:00.876Z,20.73
2022-10-22T21:26:29.210Z,21.17
2022-10-22T21:28:57.314Z,20.75
2022-10-22T21:31:27.988Z,21.23
2022-10-22T21:34:03.065Z,20.60
2022-10-22T21:36:33.439Z,20.33
2022-10-22T21:39:01.984Z,22.05
2022-10-22T21:41:32.308Z,23.08
2022-10-22T21:44:00.552Z,23.73
2022-10-22T21:46:29.733Z,24.00
2022-10-22T21:48:59.211Z,21.70
2022-10-22T21:51:27.148Z,21.98
2022-10-22T21:53:55.779Z,22.05
2022-10-22T21:56:24.763Z,23.08
2022-10-22T21:58:56.200Z,21.48
2022-10-22T22:01:24.091Z,22.33
2022-10-22T22:03:54.152Z,22.15
2022-10-22T22:06:23.291Z,23.00
2022-10-22T22:08:52.367Z,26.33
2022-10-22T22:11:21.554Z,21.40
2022-10-22T22:13:50.001Z,22.75
2022-10-22T22:16:22.491Z,22.52
2022-10-22T22:18:55.077Z,22.48
2022-10-22T22:21:23.191Z,23.52
2022-10-22T22:23:55.125Z,23.13
2022-10-22T22:26:26.727Z,22.58
2022-10-22T22:28:57.560Z,22.90
2022-10-22T22:31:26.258Z,22.10
2022-10-22T22:33:59.869Z,22.55
2022-10-22T22:36:27.668Z,22.20
2022-10-22T22:38:56.002Z,22.17
2022-10-22T22:41:23.984Z,22.00
2022-10-22T22:43:51.912Z,21.33
2022-10-22T22:46:19.903Z,21.08
2022-10-22T22:48:48.788Z,21.05
2022-10-22T22:51:18.284Z,19.65
2022-10-22T22:53:46.194Z,20.30
2022-10-22T22:56:14.991Z,22.25
2022-10-22T22:58:42.902Z,20.42
2022-10-22T23:01:11.536Z,21.15
2022-10-22T23:03:39.359Z,20.48
2022-10-22T23:06:07.375Z,21.77
2022-10-22T23:08:36.656Z,20.45
2022-10-22T23:11:05.203Z,25.35
2022-10-22T23:13:33.819Z,23.65
2022-10-22T23:16:01.659Z,22.90
2022-10-22T23:18:29.506Z,20.67
2022-10-22T23:20:57.382Z,20.58
2022-10-22T23:23:25.495Z,20.65
2022-10-22T23:28:26.489Z,20.50
2022-10-22T23:30:54.398Z,20.23
2022-10-22T23:33:24.468Z,22.38
2022-10-22T23:35:52.376Z,20.92
2022-10-22T23:38:20.426Z,20.90
2022-10-22T23:40:48.298Z,20.30
2022-10-22T23:43:17.612Z,21.95
2022-10-22T23:45:45.442Z,19.73
2022-10-22T23:48:13.407Z,18.42
2022-10-22T23:50:41.313Z,17.63
2022-10-22T23:53:09.909Z,17.65
2022-10-22T23:55:38.405Z,17.05
2022-10-22T23:58:06.431Z,17.52
